sensor_id;sensor_type;location;lat;lon;timestamp;P1;durP1;ratioP1;P2;durP2;ratioP2
19495;SDS011;9888;48.606;9.630;2022-09-12T00:01:45;14.70;;;9.37;;
19495;SDS011;9888;48.606;9.630;2022-09-12T00:04:12;14.83;;;9.53;;
19495;SDS011;9888;48.606;9.630;2022-09-12T00:06:40;20.60;;;10.13;;
19495;SDS011;9888;48.606;9.630;2022-09-12T00:09:12;13.43;;;8.27;;
19495;SDS011;9888;48.606;9.630;2022-09-12T00:11:41;15.20;;;10.20;;
19495;SDS011;9888;48.606;9.630;2022-09-12T00:14:11;14.80;;;9.80;;
19495;SDS011;9888;48.606;9.630;2022-09-12T00:16:40;15.93;;;9.60;;
19495;SDS011;9888;48.606;9.630;2022-09-12T00:19:10;13.17;;;8.60;;
19495;SDS011;9888;48.606;9.630;2022-09-12T00:21:39;14.50;;;9.50;;
19495;SDS011;9888;48.606;9.630;2022-09-12T00:24:10;16.77;;;9.77;;
19495;SDS011;9888;48.606;9.630;2022-09-12T00:26:38;16.80;;;10.50;;
19495;SDS011;9888;48.606;9.630;2022-09-12T00:29:22;18.33;;;9.40;;
19495;SDS011;9888;48.606;9.630;2022-09-12T00:31:50;15.80;;;10.13;;
19495;SDS011;9888;48.606;9.630;2022-09-12T00:34:18;15.77;;;10.23;;
19495;SDS011;9888;48.606;9.630;2022-09-12T00:36:46;16.97;;;10.50;;
19495;SDS011;9888;48.606;9.630;2022-09-12T00:39:14;15.83;;;9.93;;
19495;SDS011;9888;48.606;9.630;2022-09-12T00:49:51;17.63;;;10.10;;
19495;SDS011;9888;48.606;9.630;2022-09-12T00:52:49;13.43;;;8.43;;
19495;SDS011;9888;48.606;9.630;2022-09-12T01:04:22;14.67;;;9.20;;
19495;SDS011;9888;48.606;9.630;2022-09-12T01:16:35;27.17;;;10.57;;
19495;SDS011;9888;48.606;9.630;2022-09-12T01:37:32;15.27;;;8.93;;
19495;SDS011;9888;48.606;9.630;2022-09-12T01:43:13;30.80;;;9.70;;
19495;SDS011;9888;48.606;9.630;2022-09-12T01:45:52;31.00;;;9.70;;
19495;SDS011;9888;48.606;9.630;2022-09-12T01:48:32;35.47;;;9.70;;
19495;SDS011;9888;48.606;9.630;2022-09-12T01:51:06;37.87;;;9.00;;
19495;SDS011;9888;48.606;9.630;2022-09-12T01:53:47;49.37;;;9.77;;
19495;SDS011;9888;48.606;9.630;2022-09-12T01:56:27;35.30;;;9.10;;
19495;SDS011;9888;48.606;9.630;2022-09-12T02:02:19;21.00;;;8.67;;
19495;SDS011;9888;48.606;9.630;2022-09-12T02:07:50;28.63;;;8.90;;
19495;SDS011;9888;48.606;9.630;2022-09-12T02:20:30;13.77;;;8.17;;
19495;SDS011;9888;48.606;9.630;2022-09-12T02:23:09;13.50;;;7.70;;
19495;SDS011;9888;48.606;9.630;2022-09-12T02:29:13;13.27;;;7.47;;
19495;SDS011;9888;48.606;9.630;2022-09-12T02:55:11;27.30;;;7.83;;
19495;SDS011;9888;48.606;9.630;2022-09-12T02:57:52;13.37;;;7.00;;
19495;SDS011;9888;48.606;9.630;2022-09-12T03:00:21;14.70;;;7.37;;
19495;SDS011;9888;48.606;9.630;2022-09-12T03:15:26;16.30;;;7.23;;
19495;SDS011;9888;48.606;9.630;2022-09-12T03:30:55;28.60;;;6.77;;
19495;SDS011;9888;48.606;9.630;2022-09-12T03:33:24;39.97;;;7.10;;
19495;SDS011;9888;48.606;9.630;2022-09-12T03:35:52;30.63;;;8.60;;
19495;SDS011;9888;48.606;9.630;2022-09-12T03:38:22;24.53;;;8.90;;
19495;SDS011;9888;48.606;9.630;2022-09-12T03:40:50;27.70;;;6.53;;
19495;SDS011;9888;48.606;9.630;2022-09-12T03:43:25;14.60;;;7.30;;
19495;SDS011;9888;48.606;9.630;2022-09-12T03:45:53;12.73;;;6.07;;
19495;SDS011;9888;48.606;9.630;2022-09-12T03:48:21;19.00;;;6.67;;
19495;SDS011;9888;48.606;9.630;2022-09-12T03:50:50;25.77;;;6.90;;
19495;SDS011;9888;48.606;9.630;2022-09-12T03:53:23;13.67;;;6.47;;
19495;SDS011;9888;48.606;9.630;2022-09-12T03:55:58;16.70;;;6.70;;
19495;SDS011;9888;48.606;9.630;2022-09-12T04:01:35;15.80;;;6.60;;
19495;SDS011;9888;48.606;9.630;2022-09-12T04:04:08;18.83;;;6.00;;
19495;SDS011;9888;48.606;9.630;2022-09-12T04:06:36;15.37;;;6.30;;
19495;SDS011;9888;48.606;9.630;2022-09-12T04:09:08;14.93;;;6.47;;
19495;SDS011;9888;48.606;9.630;2022-09-12T04:11:39;17.77;;;5.50;;
19495;SDS011;9888;48.606;9.630;2022-09-12T04:14:11;27.57;;;6.60;;
19495;SDS011;9888;48.606;9.630;2022-09-12T04:16:41;24.57;;;6.87;;
19495;SDS011;9888;48.606;9.630;2022-09-12T04:19:09;14.07;;;6.13;;
19495;SDS011;9888;48.606;9.630;2022-09-12T04:21:37;25.00;;;6.83;;
19495;SDS011;9888;48.606;9.630;2022-09-12T04:24:10;23.43;;;6.40;;
19495;SDS011;9888;48.606;9.630;2022-09-12T04:26:44;24.17;;;6.10;;
19495;SDS011;9888;48.606;9.630;2022-09-12T04:29:13;18.63;;;6.30;;
19495;SDS011;9888;48.606;9.630;2022-09-12T04:31:56;12.70;;;5.67;;
19495;SDS011;9888;48.606;9.630;2022-09-12T04:34:25;13.73;;;6.60;;
19495;SDS011;9888;48.606;9.630;2022-09-12T04:36:59;10.77;;;5.57;;
19495;SDS011;9888;48.606;9.630;2022-09-12T04:45:47;13.40;;;6.23;;
19495;SDS011;9888;48.606;9.630;2022-09-12T04:48:15;10.60;;;5.73;;
19495;SDS011;9888;48.606;9.630;2022-09-12T04:50:42;17.90;;;6.97;;
19495;SDS011;9888;48.606;9.630;2022-09-12T04:53:10;19.23;;;5.60;;
19495;SDS011;9888;48.606;9.630;2022-09-12T04:55:37;19.57;;;6.53;;
19495;SDS011;9888;48.606;9.630;2022-09-12T04:58:04;31.03;;;11.00;;
19495;SDS011;9888;48.606;9.630;2022-09-12T05:00:48;25.73;;;11.03;;
19495;SDS011;9888;48.606;9.630;2022-09-12T05:03:28;16.43;;;10.70;;
19495;SDS011;9888;48.606;9.630;2022-09-12T05:05:56;19.00;;;10.60;;
19495;SDS011;9888;48.606;9.630;2022-09-12T05:08:22;20.53;;;8.93;;
19495;SDS011;9888;48.606;9.630;2022-09-12T05:10:52;27.47;;;9.30;;
19495;SDS011;9888;48.606;9.630;2022-09-12T05:13:28;28.33;;;7.33;;
19495;SDS011;9888;48.606;9.630;2022-09-12T05:15:57;38.03;;;14.30;;
19495;SDS011;9888;48.606;9.630;2022-09-12T05:18:26;42.80;;;7.83;;
19495;SDS011;9888;48.606;9.630;2022-09-12T05:20:55;24.67;;;15.87;;
19495;SDS011;9888;48.606;9.630;2022-09-12T05:23:27;37.50;;;18.37;;
19495;SDS011;9888;48.606;9.630;2022-09-12T05:25:56;30.07;;;10.80;;
19495;SDS011;9888;48.606;9.630;2022-09-12T05:28:24;29.80;;;11.57;;
19495;SDS011;9888;48.606;9.630;2022-09-12T05:31:01;29.23;;;9.27;;
19495;SDS011;9888;48.606;9.630;2022-09-12T05:33:32;21.17;;;7.10;;
19495;SDS011;9888;48.606;9.630;2022-09-12T05:39:05;18.60;;;7.50;;
19495;SDS011;9888;48.606;9.630;2022-09-12T05:41:34;15.70;;;8.13;;
19495;SDS011;9888;48.606;9.630;2022-09-12T05:44:05;10.63;;;6.40;;
19495;SDS011;9888;48.606;9.630;2022-09-12T05:46:39;11.50;;;6.70;;
19495;SDS011;9888;48.606;9.630;2022-09-12T05:49:15;12.40;;;6.97;;
19495;SDS011;9888;48.606;9.630;2022-09-12T05:51:44;25.43;;;12.57;;
19495;SDS011;9888;48.606;9.630;2022-09-12T05:54:13;14.67;;;8.63;;
19495;SDS011;9888;48.606;9.630;2022-09-12T05:56:45;15.23;;;8.67;;
19495;SDS011;9888;48.606;9.630;2022-09-12T05:59:17;13.10;;;7.97;;
19495;SDS011;9888;48.606;9.630;2022-09-12T06:01:47;17.13;;;9.17;;
19495;SDS011;9888;48.606;9.630;2022-09-12T06:04:14;19.00;;;11.00;;
19495;SDS011;9888;48.606;9.630;2022-09-12T06:06:42;17.93;;;10.87;;
19495;SDS011;9888;48.606;9.630;2022-09-12T06:09:12;20.97;;;12.87;;
19495;SDS011;9888;48.606;9.630;2022-09-12T06:11:43;37.87;;;23.53;;
19495;SDS011;9888;48.606;9.630;2022-09-12T06:14:14;40.17;;;23.30;;
19495;SDS011;9888;48.606;9.630;2022-09-12T06:16:41;34.53;;;20.93;;
19495;SDS011;9888;48.606;9.630;2022-09-12T06:19:59;34.10;;;20.93;;
19495;SDS011;9888;48.606;9.630;2022-09-12T06:22:28;38.53;;;21.00;;
19495;SDS011;9888;48.606;9.630;2022-09-12T06:24:55;33.50;;;21.23;;
19495;SDS011;9888;48.606;9.630;2022-09-12T06:30:29;35.90;;;20.07;;
19495;SDS011;9888;48.606;9.630;2022-09-12T06:32:56;43.53;;;17.87;;
19495;SDS011;9888;48.606;9.630;2022-09-12T06:35:24;28.50;;;16.43;;
19495;SDS011;9888;48.606;9.630;2022-09-12T06:37:53;24.50;;;15.67;;
19495;SDS011;9888;48.606;9.630;2022-09-12T06:43:42;28.30;;;16.83;;
19495;SDS011;9888;48.606;9.630;2022-09-12T06:46:10;32.50;;;15.80;;
19495;SDS011;9888;48.606;9.630;2022-09-12T06:48:47;23.10;;;15.60;;
19495;SDS011;9888;48.606;9.630;2022-09-12T07:20:26;20.10;;;13.80;;
19495;SDS011;9888;48.606;9.630;2022-09-12T07:22:58;18.70;;;13.70;;
19495;SDS011;9888;48.606;9.630;2022-09-12T07:25:28;16.80;;;12.73;;
19495;SDS011;9888;48.606;9.630;2022-09-12T07:28:01;19.40;;;13.00;;
19495;SDS011;9888;48.606;9.630;2022-09-12T07:30:32;18.03;;;12.80;;
19495;SDS011;9888;48.606;9.630;2022-09-12T07:33:05;20.63;;;12.53;;
19495;SDS011;9888;48.606;9.630;2022-09-12T07:35:35;15.03;;;10.77;;
19495;SDS011;9888;48.606;9.630;2022-09-12T07:38:03;17.63;;;11.80;;
19495;SDS011;9888;48.606;9.630;2022-09-12T07:40:32;21.30;;;11.20;;
19495;SDS011;9888;48.606;9.630;2022-09-12T07:43:17;13.80;;;9.40;;
19495;SDS011;9888;48.606;9.630;2022-09-12T07:45:45;22.30;;;9.80;;
19495;SDS011;9888;48.606;9.630;2022-09-12T07:48:23;11.83;;;7.30;;
19495;SDS011;9888;48.606;9.630;2022-09-12T07:57:50;12.00;;;7.53;;
19495;SDS011;9888;48.606;9.630;2022-09-12T08:00:22;15.50;;;7.03;;
19495;SDS011;9888;48.606;9.630;2022-09-12T08:03:01;10.00;;;6.80;;
19495;SDS011;9888;48.606;9.630;2022-09-12T08:05:36;12.80;;;6.27;;
19495;SDS011;9888;48.606;9.630;2022-09-12T08:08:05;9.10;;;6.13;;
19495;SDS011;9888;48.606;9.630;2022-09-12T08:10:33;10.53;;;5.83;;
19495;SDS011;9888;48.606;9.630;2022-09-12T08:13:00;8.40;;;5.13;;
19495;SDS011;9888;48.606;9.630;2022-09-12T08:15:30;11.40;;;5.33;;
19495;SDS011;9888;48.606;9.630;2022-09-12T08:17:59;10.20;;;5.60;;
19495;SDS011;9888;48.606;9.630;2022-09-12T08:20:27;7.43;;;4.97;;
19495;SDS011;9888;48.606;9.630;2022-09-12T08:23:01;9.63;;;5.17;;
19495;SDS011;9888;48.606;9.630;2022-09-12T08:25:29;7.83;;;4.93;;
19495;SDS011;9888;48.606;9.630;2022-09-12T08:27:59;7.27;;;4.80;;
19495;SDS011;9888;48.606;9.630;2022-09-12T08:30:26;8.10;;;4.60;;
19495;SDS011;9888;48.606;9.630;2022-09-12T22:13:48;7.23;;;3.57;;
19495;SDS011;9888;48.606;9.630;2022-09-12T22:16:16;6.83;;;3.40;;
19495;SDS011;9888;48.606;9.630;2022-09-12T22:18:53;6.60;;;3.57;;
19495;SDS011;9888;48.606;9.630;2022-09-12T22:21:20;6.57;;;3.73;;
19495;SDS011;9888;48.606;9.630;2022-09-12T22:23:48;8.30;;;4.43;;
19495;SDS011;9888;48.606;9.630;2022-09-12T22:26:42;8.17;;;3.97;;
19495;SDS011;9888;48.606;9.630;2022-09-12T22:29:11;9.27;;;4.20;;
19495;SDS011;9888;48.606;9.630;2022-09-12T22:31:39;8.50;;;4.27;;
19495;SDS011;9888;48.606;9.630;2022-09-12T22:34:06;7.47;;;4.23;;
19495;SDS011;9888;48.606;9.630;2022-09-12T22:36:34;7.40;;;4.07;;
19495;SDS011;9888;48.606;9.630;2022-09-12T22:39:02;6.70;;;3.47;;
19495;SDS011;9888;48.606;9.630;2022-09-12T22:41:30;8.30;;;4.40;;
19495;SDS011;9888;48.606;9.630;2022-09-12T22:43:59;9.40;;;3.50;;
19495;SDS011;9888;48.606;9.630;2022-09-12T22:46:27;8.30;;;3.67;;
19495;SDS011;9888;48.606;9.630;2022-09-12T22:48:56;7.97;;;3.43;;
19495;SDS011;9888;48.606;9.630;2022-09-12T22:51:25;10.10;;;3.83;;
19495;SDS011;9888;48.606;9.630;2022-09-12T22:53:53;7.00;;;3.80;;
19495;SDS011;9888;48.606;9.630;2022-09-12T22:56:22;6.77;;;3.43;;
19495;SDS011;9888;48.606;9.630;2022-09-12T22:58:51;6.80;;;3.73;;
19495;SDS011;9888;48.606;9.630;2022-09-12T23:04:43;7.80;;;3.27;;
19495;SDS011;9888;48.606;9.630;2022-09-12T23:07:27;6.77;;;3.43;;
19495;SDS011;9888;48.606;9.630;2022-09-12T23:09:55;6.90;;;3.47;;
19495;SDS011;9888;48.606;9.630;2022-09-12T23:18:54;7.50;;;3.73;;
19495;SDS011;9888;48.606;9.630;2022-09-12T23:21:23;9.03;;;3.33;;
19495;SDS011;9888;48.606;9.630;2022-09-12T23:23:51;7.70;;;3.77;;
19495;SDS011;9888;48.606;9.630;2022-09-12T23:26:21;7.00;;;3.60;;
19495;SDS011;9888;48.606;9.630;2022-09-12T23:28:58;6.60;;;3.77;;
19495;SDS011;9888;48.606;9.630;2022-09-12T23:31:27;10.57;;;3.80;;
19495;SDS011;9888;48.606;9.630;2022-09-12T23:33:58;9.80;;;3.70;;
19495;SDS011;9888;48.606;9.630;2022-09-12T23:36:35;6.50;;;3.30;;
19495;SDS011;9888;48.606;9.630;2022-09-12T23:39:07;6.80;;;3.50;;
19495;SDS011;9888;48.606;9.630;2022-09-12T23:41:34;6.97;;;3.40;;
19495;SDS011;9888;48.606;9.630;2022-09-12T23:44:03;7.00;;;3.73;;
19495;SDS011;9888;48.606;9.630;2022-09-12T23:46:35;8.60;;;3.90;;
19495;SDS011;9888;48.606;9.630;2022-09-12T23:49:03;7.03;;;3.70;;
19495;SDS011;9888;48.606;9.630;2022-09-12T23:51:34;7.40;;;3.90;;
19495;SDS011;9888;48.606;9.630;2022-09-12T23:54:02;7.53;;;3.50;;
19495;SDS011;9888;48.606;9.630;2022-09-12T23:56:29;11.17;;;3.70;;
19495;SDS011;9888;48.606;9.630;2022-09-12T23:58:57;7.20;;;3.93;;
